YCO weather

Kugluktuk Airport
Kugluktuk, Nunavut, Canada

Public forecast

Using degrees Celsius for public forecast. Weather courtesy of forecast.io.

Current aviation weather report (METAR) for Kugluktuk Airport

Retrieved 2019/11/16 00:32 UTC (25 minutes ago):

CYCO 160032Z 33011KT 4SM -SN SCT018 BKN027 OVC038 M17/M20 A2989 RMK SC3SC4SC1 WSHFT 0023 SLP126

Aviation forecast (TAF) for Kugluktuk Airport

Retrieved 2019-11-16 01:42 UTC (0 seconds ago):

TAF CYCO 160038Z 1601/1613 28008KT P6SM -SN OVC025 TEMPO 1601/1613 3SM -SN OVC020 BECMG 1604/1606 24010KT RMK NXT FCST BY 160700Z